^^
Station Historical Data
Daily Summary for December 3, 2017 Units:  Metric    English   Both
« Previous Day
Next Day »
Daily Weekly Monthly Yearly Custom
  High: Low: Average:
Temperature: 29.4 °C 11.5 °C 18.2 °C
Dew Point: 8 °C -8.9 °C 3.5 °C
Humidity: 77% 8% 49%
Wind Speed: 25.9km/h 0km/h 14.6km/h
Wind Gust: 32.2km/h - -
Wind- - SSW
Pressure: 1013.1 hPa 1009.4 hPa -
Precipitation: 0 mm    
Historical Graphs
 
 
Tabular Data for December 3, 2017
Time Temperature Dew Point Pressure Wind Wind Speed Wind Gust Humidity Rainfall Rate (Hourly) solar Conditions
00:32 15.6 °C 7.6 °C 1009.7 hPa SW 16.3 km/h 24.1 km/h 59% 0 mm 0.0 W/m2
00:38 15.4 °C 7.4 °C 1009.4 hPa SSW 14.3 km/h 19.3 km/h 59% 0 mm 0.0 W/m2
00:50 15.2 °C 7.7 °C 1009.7 hPa SW 20.9 km/h 20.9 km/h 61% 0 mm 0.0 W/m2
01:13 14.5 °C 7.8 °C 1009.4 hPa SW 22.7 km/h 22.7 km/h 64% 0 mm 0.0 W/m2
01:18 14.4 °C 7.9 °C 1009.4 hPa SW 17.7 km/h 22.5 km/h 65% 0 mm 0.0 W/m2
01:28 14.2 °C 7.9 °C 1009.7 hPa SW 14.3 km/h 20.9 km/h 66% 0 mm 0.0 W/m2
01:33 14.2 °C 7.9 °C 1009.7 hPa SW 14.3 km/h 20.9 km/h 66% 0 mm 0.0 W/m2
01:48 13.8 °C 8 °C 1009.4 hPa SSW 19.5 km/h 19.5 km/h 68% 0 mm 0.0 W/m2
02:03 13.6 °C 7.8 °C 1009.7 hPa SSW 13 km/h 19.3 km/h 68% 0 mm 0.0 W/m2
02:23 13.2 °C 7.8 °C 1009.4 hPa SSW 19.5 km/h 20.9 km/h 70% 0 mm 0.0 W/m2
02:38 13 °C 7.9 °C 1009.7 hPa SSW 17.7 km/h 25.7 km/h 71% 0 mm 0.0 W/m2
02:48 12.8 °C 7.9 °C 1009.7 hPa SSW 14.3 km/h 19.3 km/h 72% 0 mm 0.0 W/m2
02:53 12.7 °C 7.8 °C 1009.4 hPa SSW 24.1 km/h 24.1 km/h 72% 0 mm 0.0 W/m2
02:58 12.6 °C 7.9 °C 1009.7 hPa SSW 19.5 km/h 22.5 km/h 73% 0 mm 0.0 W/m2
03:08 12.4 °C 7.7 °C 1009.7 hPa SSW 13 km/h 20.9 km/h 73% 0 mm 0.0 W/m2
03:13 12.4 °C 7.9 °C 1009.7 hPa South 16.3 km/h 19.3 km/h 74% 0 mm 0.0 W/m2
03:18 12.4 °C 7.9 °C 1009.7 hPa South 20.9 km/h 24.1 km/h 74% 0 mm 0.0 W/m2
03:28 12.3 °C 8 °C 1009.7 hPa SSW 17.7 km/h 24.1 km/h 75% 0 mm 0.0 W/m2
03:53 12 °C 7.9 °C 1010 hPa SSW 19.5 km/h 27.4 km/h 76% 0 mm 0.0 W/m2
04:03 11.9 °C 8 °C 1010 hPa SSW 16.3 km/h 24.1 km/h 77% 0 mm 0.0 W/m2
04:13 11.8 °C 7.9 °C 1010 hPa SSW 14.3 km/h 24.1 km/h 77% 0 mm 0.0 W/m2
04:18 11.8 °C 7.9 °C 1010 hPa SSW 17.7 km/h 25.7 km/h 77% 0 mm 0.0 W/m2
04:23 11.8 °C 7.9 °C 1010 hPa South 19.5 km/h 20.9 km/h 77% 0 mm 0.0 W/m2
04:38 11.6 °C 7.7 °C 1010 hPa SSW 13 km/h 17.7 km/h 77% 0 mm 0.0 W/m2
04:44 11.6 °C 7.7 °C 1010.4 hPa South 14.3 km/h 17.7 km/h 77% 0 mm 0.0 W/m2
04:48 11.6 °C 7.7 °C 1010 hPa SSW 11.1 km/h 16.1 km/h 77% 0 mm 0.0 W/m2
04:54 11.6 °C 7.7 °C 1010.4 hPa South 16.3 km/h 19.3 km/h 77% 0 mm 0.0 W/m2
04:59 11.7 °C 7.8 °C 1010.4 hPa South 14.3 km/h 17.7 km/h 77% 0 mm 0.0 W/m2
05:04 11.7 °C 7.6 °C 1010.7 hPa South 11.1 km/h 17.7 km/h 76% 0 mm 0.0 W/m2
05:09 11.7 °C 7.6 °C 1010.7 hPa South 13 km/h 14.5 km/h 76% 0 mm 0.0 W/m2
05:14 11.7 °C 7.6 °C 1010.7 hPa South 11.1 km/h 12.9 km/h 76% 0 mm 0.0 W/m2
05:24 11.6 °C 7.5 °C 1010.7 hPa South 11.1 km/h 12.9 km/h 76% 0 mm 0.0 W/m2
05:29 11.6 °C 7.5 °C 1010.7 hPa South 6.4 km/h 11.3 km/h 76% 0 mm 0.0 W/m2
05:39 11.5 °C 7.4 °C 1011.1 hPa South 9.7 km/h 12.9 km/h 76% 0 mm 0.0 W/m2
05:44 11.5 °C 7.2 °C 1011.1 hPa South 9.7 km/h 14.5 km/h 75% 0 mm 0.0 W/m2
05:49 11.5 °C 7.2 °C 1010.7 hPa South 9.7 km/h 12.9 km/h 75% 0 mm 5.0 W/m2
05:54 11.5 °C 7.2 °C 1011.1 hPa South 9.7 km/h 16.1 km/h 75% 0 mm 9.0 W/m2
06:05 11.6 °C 7.3 °C 1011.1 hPa South 13 km/h 16.1 km/h 75% 0 mm 14.0 W/m2
06:25 12 °C 7.5 °C 1011.4 hPa SSW 11.1 km/h 16.1 km/h 74% 0 mm 58.0 W/m2
06:39 12.3 °C 7.4 °C 1011.7 hPa SSW 17.7 km/h 20.9 km/h 72% 0 mm 109.0 W/m2
06:45 12.4 °C 7.5 °C 1011.7 hPa SSW 17.7 km/h 22.5 km/h 72% 0 mm 128.0 W/m2
06:50 12.5 °C 7.4 °C 1011.7 hPa SSW 16.3 km/h 20.9 km/h 71% 0 mm 149.0 W/m2
06:56 12.6 °C 7.5 °C 1011.7 hPa SSW 11.1 km/h 20.9 km/h 71% 0 mm 171.0 W/m2
07:06 12.8 °C 7.5 °C 1011.7 hPa SSW 20.9 km/h 20.9 km/h 70% 0 mm 207.0 W/m2
07:19 13.2 °C 7.4 °C 1012.1 hPa South 13 km/h 20.9 km/h 68% 0 mm 262.0 W/m2
07:40 13.7 °C 7.2 °C 1012.4 hPa SSW 16.3 km/h 17.7 km/h 65% 0 mm 330.0 W/m2
07:45 13.8 °C 7.1 °C 1012.8 hPa South 17.7 km/h 20.9 km/h 64% 0 mm 346.0 W/m2
07:51 14.1 °C 7.2 °C 1012.8 hPa SSW 14.3 km/h 19.3 km/h 63% 0 mm 366.0 W/m2
08:00 14.3 °C 7.1 °C 1012.8 hPa SSW 14.3 km/h 17.7 km/h 62% 0 mm 404.0 W/m2
08:16 14.8 °C 6.9 °C 1012.8 hPa SSW 13 km/h 20.9 km/h 59% 0 mm 454.0 W/m2
08:25 15.3 °C 7.1 °C 1012.8 hPa SSW 16.3 km/h 17.7 km/h 58% 0 mm 489.0 W/m2
08:31 15.3 °C 6.8 °C 1012.8 hPa SSW 16.3 km/h 20.9 km/h 57% 0 mm 504.0 W/m2
08:58 16 °C 7 °C 1013.1 hPa SSW 17.7 km/h 20.9 km/h 55% 0 mm 585.0 W/m2
09:07 16.4 °C 6.8 °C 1013.1 hPa SSW 14.3 km/h 20.9 km/h 53% 0 mm 617.0 W/m2
10:46 20.3 °C 4.7 °C 1013.1 hPa SW 14.3 km/h 17.7 km/h 36% 0 mm 882.0 W/m2
10:54 20.7 °C 3.8 °C 1013.1 hPa SW 14.3 km/h 14.5 km/h 33% 0 mm 889.0 W/m2
11:01 21.2 °C 4.3 °C 1013.1 hPa SSW 11.1 km/h 12.9 km/h 33% 0 mm 907.0 W/m2
11:16 21.6 °C 4.6 °C 1013.1 hPa SSW 13 km/h 14.5 km/h 33% 0 mm 923.0 W/m2
11:21 22.3 °C 2.9 °C 1012.8 hPa SSW 6.4 km/h 14.5 km/h 28% 0 mm 940.0 W/m2
11:46 22.4 °C 3.5 °C 1012.8 hPa SW 13 km/h 16.1 km/h 29% 0 mm 969.0 W/m2
12:05 23.3 °C 3.2 °C 1012.4 hPa SW 11.1 km/h 19.3 km/h 27% 0 mm 981.0 W/m2
12:15 24.2 °C 2.4 °C 1012.4 hPa SW 14.3 km/h 19.3 km/h 24% 0 mm 986.0 W/m2
12:24 24.1 °C 1.7 °C 1012.1 hPa SW 14.3 km/h 16.1 km/h 23% 0 mm 993.0 W/m2
12:32 24.3 °C 1.8 °C 1012.1 hPa SW 7.9 km/h 17.7 km/h 23% 0 mm 993.0 W/m2
14:14 27.1 °C -3.7 °C 1011.4 hPa SSW 11.1 km/h 16.1 km/h 13% 0 mm 930.0 W/m2
14:29 27.5 °C -5.6 °C 1011.4 hPa SSW 11.1 km/h 14.5 km/h 11% 0 mm 907.0 W/m2
14:42 27.6 °C -4.4 °C 1011.4 hPa SSW 16.3 km/h 19.3 km/h 12% 0 mm 874.0 W/m2
14:48 27.7 °C -6.7 °C 1011.1 hPa SW 20.9 km/h 20.9 km/h 10% 0 mm 858.0 W/m2
15:08 28.3 °C -6.2 °C 1010.7 hPa SW 17.7 km/h 24.1 km/h 10% 0 mm 821.0 W/m2
15:18 28.3 °C -7.6 °C 1010.7 hPa SW 13 km/h 14.5 km/h 9% 0 mm 786.0 W/m2
15:38 28.9 °C -7.2 °C 1010.4 hPa SSW 16.3 km/h 20.9 km/h 9% 0 mm 745.0 W/m2
15:43 28.6 °C -8.9 °C 1010.4 hPa SSW 13 km/h 20.9 km/h 8% 0 mm 717.0 W/m2
16:00 28.6 °C -8.9 °C 1010 hPa SSW 16.3 km/h 16.3 km/h 8% 0 mm 673.0 W/m2
16:54 29.3 °C -5.5 °C 1010 hPa South 9.7 km/h 17.7 km/h 10% 0 mm 506.0 W/m2
17:03 29.4 °C -6.8 °C 1009.7 hPa South 9.7 km/h 20.9 km/h 9% 0 mm 469.0 W/m2
17:10 28.9 °C -5.8 °C 1009.7 hPa SSW 9.7 km/h 12.9 km/h 10% 0 mm 434.0 W/m2
17:21 29.1 °C -7 °C 1009.7 hPa SSW 9.7 km/h 19.3 km/h 9% 0 mm 403.0 W/m2
17:26 29 °C -8.6 °C 1009.7 hPa South 13 km/h 17.7 km/h 8% 0 mm 387.0 W/m2
17:29 28.8 °C -7.2 °C 1010 hPa Calm   8 km/h 9% 0 mm 366.0 W/m2
17:44 28.8 °C -5.9 °C 1010 hPa South 14.3 km/h 22.5 km/h 10% 0 mm 330.0 W/m2
17:59 28.8 °C -4.6 °C 1009.7 hPa South 11.1 km/h 20.9 km/h 11% 0 mm 278.0 W/m2
18:15 28.7 °C -4.7 °C 1010 hPa South 17.7 km/h 25.7 km/h 11% 0 mm 223.0 W/m2
18:30 28.1 °C -4 °C 1010 hPa South 14.3 km/h 25.7 km/h 12% 0 mm 158.0 W/m2
18:45 27.9 °C -4.1 °C 1010 hPa South 17.7 km/h 27.4 km/h 12% 0 mm 97.0 W/m2
19:00 27.6 °C -3.3 °C 1010.4 hPa South 22.7 km/h 27.4 km/h 13% 0 mm 47.0 W/m2
19:15 27.1 °C -2.7 °C 1010.4 hPa South 19.5 km/h 27.4 km/h 14% 0 mm 14.0 W/m2
19:30 26.4 °C -2.3 °C 1010.7 hPa South 17.7 km/h 32.2 km/h 15% 0 mm 7.0 W/m2
19:43 25.8 °C -2.8 °C 1010.7 hPa South 25.9 km/h 30.6 km/h 15% 0 mm 0.0 W/m2
Canyon Roadhouse, Fishriver Canyon, Namibia
Compliments of Weather Underground - 2 mb